createdAt,value
2018-03-11T00:00:08.956Z,0
2018-03-11T00:01:19.058Z,0
2018-03-11T00:02:28.900Z,0
2018-03-11T00:03:38.990Z,0
2018-03-11T00:04:49.085Z,0
2018-03-11T00:05:58.888Z,0
2018-03-11T00:07:08.970Z,0
2018-03-11T00:08:19.022Z,0
2018-03-11T00:09:28.817Z,0
2018-03-11T00:10:38.638Z,0
2018-03-11T00:11:48.727Z,0
2018-03-11T00:12:58.587Z,0
2018-03-11T00:14:08.403Z,0
2018-03-11T00:15:18.204Z,0
2018-03-11T00:16:28.294Z,0
2018-03-11T00:17:38.361Z,0
2018-03-11T00:18:48.232Z,0
2018-03-11T00:19:57.775Z,0
2018-03-11T00:21:07.598Z,0
2018-03-11T00:22:17.450Z,0
2018-03-11T00:23:27.518Z,0
2018-03-11T00:24:37.383Z,0
2018-03-11T00:25:47.472Z,0
2018-03-11T00:26:57.015Z,0
2018-03-11T00:28:07.081Z,0
2018-03-11T00:29:17.190Z,0
2018-03-11T00:30:27.362Z,0
2018-03-11T00:31:37.173Z,0
2018-03-11T00:32:47.248Z,0
2018-03-11T00:33:57.320Z,0
2018-03-11T00:35:07.129Z,0
2018-03-11T00:36:16.983Z,0
2018-03-11T00:37:27.069Z,0
2018-03-11T00:38:36.624Z,0
2018-03-11T00:39:46.439Z,0
2018-03-11T00:40:56.249Z,0
2018-03-11T00:42:06.066Z,0
2018-03-11T00:43:16.003Z,0
2018-03-11T00:44:25.553Z,0
2018-03-11T00:45:35.620Z,0
2018-03-11T00:46:45.166Z,0
2018-03-11T00:47:55.301Z,0
2018-03-11T00:49:05.362Z,0
2018-03-11T00:50:15.170Z,0
2018-03-11T00:51:25.240Z,0
2018-03-11T00:52:35.045Z,0
2018-03-11T00:53:45.162Z,0
2018-03-11T00:54:54.805Z,0
2018-03-11T00:56:04.423Z,0
2018-03-11T00:57:14.490Z,0
2018-03-11T00:58:24.573Z,0
2018-03-11T00:59:34.637Z,0
2018-03-11T01:00:44.432Z,0
2018-03-11T01:01:54.494Z,0
2018-03-11T01:03:04.569Z,0
2018-03-11T01:04:14.107Z,0
2018-03-11T01:05:24.180Z,0
2018-03-11T01:06:33.980Z,0
2018-03-11T01:07:43.838Z,0
2018-03-11T01:08:53.891Z,0
2018-03-11T01:10:03.715Z,0
2018-03-11T01:11:14.074Z,0
2018-03-11T01:12:24.125Z,0
2018-03-11T01:13:33.400Z,0
2018-03-11T01:14:43.477Z,0
2018-03-11T01:15:53.279Z,0
2018-03-11T01:17:03.134Z,0
2018-03-11T01:18:13.184Z,0
2018-03-11T01:19:23.237Z,0
2018-03-11T01:20:33.320Z,0
2018-03-11T01:21:43.431Z,0
2018-03-11T01:22:53.530Z,0
2018-03-11T01:24:03.592Z,0
2018-03-11T01:25:13.392Z,0
2018-03-11T01:26:23.493Z,0
2018-03-11T01:27:33.326Z,0
2018-03-11T01:28:42.923Z,0
2018-03-11T01:29:52.715Z,0
2018-03-11T01:31:02.790Z,0
2018-03-11T01:32:12.599Z,0
2018-03-11T01:33:22.657Z,0
2018-03-11T01:34:32.201Z,0
2018-03-11T01:35:41.733Z,0
2018-03-11T01:36:51.818Z,0
2018-03-11T01:38:01.897Z,0
2018-03-11T01:39:11.969Z,0
2018-03-11T01:40:22.037Z,0
2018-03-11T01:41:31.845Z,0
2018-03-11T01:42:41.910Z,0
2018-03-11T01:43:51.449Z,0
2018-03-11T01:45:01.526Z,0
2018-03-11T01:46:11.128Z,0
2018-03-11T01:47:20.675Z,0
2018-03-11T01:48:30.472Z,0
2018-03-11T01:49:40.278Z,0
2018-03-11T01:50:50.346Z,0
2018-03-11T01:52:00.203Z,0
2018-03-11T01:53:09.994Z,0
2018-03-11T01:54:20.059Z,0
2018-03-11T01:55:30.139Z,0
2018-03-11T01:56:40.205Z,0
2018-03-11T01:57:50.324Z,0
2018-03-11T01:59:00.404Z,0
2018-03-11T02:00:10.232Z,0
2018-03-11T02:01:19.237Z,0
2018-03-11T02:02:29.303Z,0
2018-03-11T02:03:39.094Z,0
2018-03-11T02:04:49.156Z,0
2018-03-11T02:05:59.229Z,0
2018-03-11T02:07:09.032Z,0
2018-03-11T02:08:18.833Z,0
2018-03-11T02:09:28.628Z,0
2018-03-11T02:10:38.686Z,0
2018-03-11T02:11:48.491Z,0
2018-03-11T02:12:58.280Z,0
2018-03-11T02:14:08.083Z,0
2018-03-11T02:15:17.863Z,0
2018-03-11T02:16:27.919Z,0
2018-03-11T02:17:37.983Z,0
2018-03-11T02:18:47.803Z,0
2018-03-11T02:19:57.860Z,0
2018-03-11T02:21:07.922Z,0
2018-03-11T02:22:17.716Z,0
2018-03-11T02:23:27.516Z,0
2018-03-11T02:24:37.577Z,0
2018-03-11T02:25:47.641Z,0
2018-03-11T02:26:57.710Z,0
2018-03-11T02:28:07.764Z,0
2018-03-11T02:29:17.571Z,0
2018-03-11T02:30:27.639Z,0
2018-03-11T02:31:37.704Z,0
2018-03-11T02:32:47.786Z,0
2018-03-11T02:33:57.602Z,0
2018-03-11T02:35:07.153Z,0
2018-03-11T02:36:16.963Z,0
2018-03-11T02:37:27.101Z,0
2018-03-11T02:38:37.176Z,0
2018-03-11T02:39:46.985Z,0
2018-03-11T02:40:56.784Z,0
2018-03-11T02:42:06.593Z,0
2018-03-11T02:43:16.413Z,0
2018-03-11T02:44:26.533Z,0
2018-03-11T02:45:36.062Z,0
2018-03-11T02:46:46.140Z,0
2018-03-11T02:47:55.681Z,0
2018-03-11T02:49:05.731Z,0
2018-03-11T02:50:15.552Z,0
2018-03-11T02:51:25.383Z,0
2018-03-11T02:52:35.467Z,0
2018-03-11T02:53:45.270Z,0
2018-03-11T02:54:55.061Z,0
2018-03-11T02:56:05.184Z,0
2018-03-11T02:57:15.108Z,0
2018-03-11T02:58:25.340Z,0
2018-03-11T02:59:34.874Z,0
2018-03-11T03:00:44.675Z,0
2018-03-11T03:01:54.528Z,0
2018-03-11T03:03:04.590Z,0
2018-03-11T03:04:14.656Z,0
2018-03-11T03:05:24.199Z,0
2018-03-11T03:06:34.259Z,0
2018-03-11T03:07:44.115Z,0
2018-03-11T03:39:39.524Z,0
2018-03-11T03:40:49.579Z,0
2018-03-11T03:41:59.353Z,0
2018-03-11T03:43:09.175Z,0
2018-03-11T03:44:18.967Z,0
2018-03-11T03:45:28.509Z,0
2018-03-11T03:46:38.579Z,0
2018-03-11T03:47:48.386Z,0
2018-03-11T03:48:58.445Z,0
2018-03-11T03:50:08.246Z,0
2018-03-11T03:51:18.092Z,0
2018-03-11T03:52:27.891Z,0
2018-03-11T03:53:37.426Z,0
2018-03-11T03:54:47.203Z,0
2018-03-11T03:55:56.469Z,0
2018-03-11T03:57:06.520Z,0
2018-03-11T03:58:15.799Z,0
2018-03-11T03:59:25.874Z,0
2018-03-11T04:00:35.415Z,0
2018-03-11T04:01:44.679Z,0
2018-03-11T04:02:54.740Z,0
2018-03-11T04:04:04.813Z,0
2018-03-11T04:05:14.883Z,0
2018-03-11T04:06:24.690Z,0
2018-03-11T04:07:34.483Z,0
2018-03-11T04:08:44.545Z,0
2018-03-11T04:09:54.629Z,0
2018-03-11T04:11:04.151Z,0
2018-03-11T04:12:13.952Z,0
2018-03-11T04:13:24.014Z,0
2018-03-11T04:14:33.881Z,0
2018-03-11T04:15:43.976Z,0
2018-03-11T04:16:53.778Z,0
2018-03-11T04:18:03.844Z,0
2018-03-11T04:19:13.384Z,0
2018-03-11T04:20:23.455Z,0
2018-03-11T04:21:32.717Z,0
2018-03-11T04:22:42.515Z,0
2018-03-11T04:23:51.784Z,0
2018-03-11T04:25:01.850Z,0
2018-03-11T04:26:11.714Z,0
2018-03-11T04:27:21.519Z,0
2018-03-11T04:28:31.327Z,0
2018-03-11T04:29:41.395Z,0
2018-03-11T04:30:50.927Z,0
2018-03-11T04:32:00.739Z,0
2018-03-11T04:33:10.273Z,0
2018-03-11T04:34:20.063Z,0
2018-03-11T04:35:29.859Z,0
2018-03-11T04:36:39.922Z,0
2018-03-11T04:37:49.513Z,0
2018-03-11T04:38:59.318Z,0
2018-03-11T04:40:09.112Z,0
2018-03-11T04:41:19.199Z,0
2018-03-11T04:42:28.993Z,0
2018-03-11T04:43:39.043Z,0
2018-03-11T04:44:48.838Z,4
2018-03-11T04:45:58.900Z,4
2018-03-11T04:47:08.970Z,0
2018-03-11T04:48:19.018Z,0
2018-03-11T04:49:29.134Z,4
2018-03-11T04:50:38.696Z,4
2018-03-11T04:51:48.492Z,4
2018-03-11T04:52:58.287Z,4
2018-03-11T04:54:08.364Z,4
2018-03-11T04:55:18.414Z,4
2018-03-11T04:56:28.482Z,8
2018-03-11T04:57:38.288Z,8
2018-03-11T04:58:48.074Z,8
2018-03-11T04:59:58.130Z,16
2018-03-11T05:01:08.240Z,20
2018-03-11T05:02:18.293Z,20
2018-03-11T05:03:27.837Z,24
2018-03-11T05:04:37.890Z,28
2018-03-11T05:05:47.954Z,36
2018-03-11T05:06:58.021Z,40
2018-03-11T05:08:08.084Z,48
2018-03-11T05:09:18.149Z,60
2018-03-11T05:10:28.283Z,64
2018-03-11T05:11:37.810Z,72
2018-03-11T05:12:47.866Z,84
2018-03-11T05:13:57.661Z,92
2018-03-11T05:15:07.724Z,104
2018-03-11T05:16:17.782Z,116
2018-03-11T05:17:27.842Z,136
2018-03-11T05:18:37.416Z,156
2018-03-11T05:19:47.231Z,176
2018-03-11T05:20:57.083Z,196
2018-03-11T05:22:07.166Z,212
2018-03-11T05:23:17.217Z,232
2018-03-11T05:24:27.344Z,252
2018-03-11T05:25:37.415Z,276
2018-03-11T05:26:47.228Z,296
2018-03-11T05:27:57.030Z,316
2018-03-11T05:29:06.887Z,344
2018-03-11T05:30:16.964Z,364
2018-03-11T05:31:27.025Z,392
2018-03-11T05:32:36.811Z,420
2018-03-11T05:33:46.611Z,448
2018-03-11T05:34:56.683Z,484
2018-03-11T05:36:06.798Z,528
2018-03-11T05:37:16.519Z,572
2018-03-11T05:38:26.633Z,632
2018-03-11T05:39:36.422Z,684
2018-03-11T05:40:46.544Z,744
2018-03-11T05:41:56.603Z,784
2018-03-11T05:43:06.390Z,848
2018-03-11T05:44:16.173Z,888
2018-03-11T05:45:26.251Z,916
2018-03-11T05:46:36.299Z,948
2018-03-11T05:47:46.090Z,988
2018-03-11T05:48:56.137Z,1024
2018-03-11T05:50:05.988Z,1064
2018-03-11T05:51:16.068Z,1096
2018-03-11T05:52:26.111Z,1132
2018-03-11T05:53:35.972Z,1160
2018-03-11T05:54:46.042Z,1192
2018-03-11T05:55:55.882Z,1224
2018-03-11T05:57:05.684Z,1256
2018-03-11T05:58:15.740Z,1288
2018-03-11T05:59:26.000Z,1320
2018-03-11T06:00:36.082Z,1348
2018-03-11T06:01:45.878Z,1368
2018-03-11T06:02:55.684Z,1392
2018-03-11T06:04:05.476Z,1428
2018-03-11T06:05:15.549Z,1456
2018-03-11T06:06:25.067Z,1464
2018-03-11T06:07:35.184Z,1444
2018-03-11T06:08:44.968Z,1468
2018-03-11T06:09:55.044Z,1472
2018-03-11T06:11:04.874Z,1388
2018-03-11T06:12:14.666Z,1324
2018-03-11T06:13:24.488Z,1372
2018-03-11T06:14:34.548Z,1464
2018-03-11T06:15:44.345Z,1460
2018-03-11T06:16:54.471Z,1556
2018-03-11T06:18:04.270Z,1660
2018-03-11T06:19:14.126Z,1756
2018-03-11T06:20:23.668Z,1844
2018-03-11T06:21:33.733Z,1852
2018-03-11T06:22:43.791Z,1944
2018-03-11T06:23:53.358Z,1972
2018-03-11T06:25:03.158Z,2032
2018-03-11T06:26:13.221Z,2068
2018-03-11T06:27:23.318Z,2100
2018-03-11T06:28:32.868Z,2132
2018-03-11T06:29:42.927Z,2160
2018-03-11T06:30:52.466Z,2188
2018-03-11T06:32:02.266Z,2224
2018-03-11T06:33:12.328Z,2256
2018-03-11T06:34:22.391Z,2280
2018-03-11T06:35:32.449Z,2312
2018-03-11T06:36:42.226Z,2336
2018-03-11T06:37:52.018Z,2360
2018-03-11T06:39:02.210Z,2380
2018-03-11T06:40:12.014Z,2416
2018-03-11T06:41:21.806Z,2456
2018-03-11T06:42:31.611Z,2484
2018-03-11T06:43:41.406Z,2496
2018-03-11T06:44:51.208Z,2532
2018-03-11T06:46:00.752Z,2568
2018-03-11T06:47:10.817Z,2604
2018-03-11T06:48:20.889Z,2624
2018-03-11T06:49:30.690Z,2652
2018-03-11T06:50:40.490Z,2668
2018-03-11T06:51:50.561Z,2720
2018-03-11T06:53:00.646Z,2736
2018-03-11T06:54:10.439Z,2776
2018-03-11T06:55:19.984Z,2800
2018-03-11T06:56:29.536Z,2816
2018-03-11T06:57:39.333Z,2852
2018-03-11T06:58:48.879Z,2888
2018-03-11T06:59:58.671Z,2920
2018-03-11T07:01:08.464Z,2952
2018-03-11T07:02:18.589Z,2976
2018-03-11T07:03:28.131Z,2984
2018-03-11T07:04:37.929Z,3012
2018-03-11T07:05:47.732Z,3044
2018-03-11T07:06:57.357Z,3056
2018-03-11T07:08:07.460Z,3088
2018-03-11T07:09:17.558Z,3104
2018-03-11T07:10:27.641Z,3152
2018-03-11T07:11:37.738Z,3180
2018-03-11T07:12:47.799Z,3180
2018-03-11T07:13:57.912Z,3208
2018-03-11T07:15:07.471Z,3256
2018-03-11T07:16:17.355Z,3268
2018-03-11T07:17:27.472Z,3308
2018-03-11T07:18:37.265Z,3356
2018-03-11T07:19:46.790Z,3380
2018-03-11T07:20:56.848Z,3400
2018-03-11T07:22:06.644Z,3440
2018-03-11T07:23:16.500Z,3452
2018-03-11T07:24:26.298Z,3472
2018-03-11T07:25:36.470Z,3516
2018-03-11T07:26:46.263Z,3548
2018-03-11T07:27:56.067Z,3580
2018-03-11T07:29:06.147Z,3616
2018-03-11T07:30:15.696Z,3648
2018-03-11T07:31:25.313Z,3668
2018-03-11T07:32:35.375Z,3716
2018-03-11T07:33:45.169Z,3740
2018-03-11T07:34:55.221Z,3772
2018-03-11T07:36:04.771Z,3784
2018-03-11T07:37:14.568Z,3824
2018-03-11T07:38:24.126Z,3884
2018-03-11T07:39:33.947Z,3904
2018-03-11T07:40:43.748Z,3936
2018-03-11T07:41:53.822Z,3980
2018-03-11T07:43:03.905Z,4020
2018-03-11T07:44:13.713Z,4052
2018-03-11T07:45:23.799Z,4096
2018-03-11T07:46:33.868Z,4132
2018-03-11T07:47:43.913Z,4184
2018-03-11T07:48:54.055Z,4232
2018-03-11T07:50:04.111Z,4276
2018-03-11T07:51:14.224Z,4340
2018-03-11T07:52:24.031Z,4392
2018-03-11T07:53:34.097Z,4432
2018-03-11T07:54:44.287Z,4484
2018-03-11T07:55:54.366Z,4588
2018-03-11T07:57:04.172Z,4664
2018-03-11T07:58:13.708Z,4024
2018-03-11T07:59:23.505Z,4912
2018-03-11T08:00:33.580Z,5000
2018-03-11T08:01:43.104Z,5068
2018-03-11T08:02:53.164Z,5156
2018-03-11T08:04:02.983Z,5240
2018-03-11T08:05:13.045Z,4840
2018-03-11T08:06:22.834Z,5248
2018-03-11T08:07:32.910Z,4668
2018-03-11T08:08:42.991Z,4844
2018-03-11T08:09:53.056Z,5084
2018-03-11T08:11:02.883Z,5092
2018-03-11T08:12:12.961Z,5032
2018-03-11T08:13:23.033Z,4848
2018-03-11T08:14:32.969Z,4800
2018-03-11T08:15:43.158Z,4800
2018-03-11T08:16:52.978Z,4844
2018-03-11T08:18:02.254Z,4868
2018-03-11T08:19:12.086Z,4940
2018-03-11T08:20:22.068Z,4888
2018-03-11T08:21:31.884Z,5084
2018-03-11T08:22:41.172Z,5108
2018-03-11T08:23:51.256Z,5172
2018-03-11T08:25:01.339Z,5288
2018-03-11T08:26:11.431Z,5288
2018-03-11T08:27:21.506Z,5436
2018-03-11T08:28:31.604Z,5452
2018-03-11T08:29:41.672Z,5472
2018-03-11T08:30:51.250Z,5500
2018-03-11T08:32:01.328Z,5472
2018-03-11T08:33:11.174Z,5540
2018-03-11T08:34:21.230Z,5576
2018-03-11T08:35:31.326Z,5724
2018-03-11T08:36:40.875Z,5500
2018-03-11T08:37:50.953Z,5644
2018-03-11T08:39:00.774Z,5280
2018-03-11T08:40:10.838Z,4856
2018-03-11T08:41:20.919Z,4780
2018-03-11T08:42:30.455Z,4560
2018-03-11T08:43:40.600Z,4780
2018-03-11T08:44:50.695Z,4912
2018-03-11T08:46:00.776Z,5108
2018-03-11T08:47:10.870Z,5160
2018-03-11T08:48:20.719Z,5360
2018-03-11T08:49:30.590Z,5300
2018-03-11T08:50:40.431Z,5436
2018-03-11T08:51:50.539Z,5232
2018-03-11T08:53:00.761Z,5272
2018-03-11T08:54:10.583Z,5648
2018-03-11T08:55:20.392Z,5924
2018-03-11T08:56:30.467Z,6164
2018-03-11T08:57:40.283Z,6352
2018-03-11T08:58:50.370Z,6344
2018-03-11T08:59:59.969Z,6324
2018-03-11T09:01:09.792Z,6464
2018-03-11T09:02:19.616Z,6648
2018-03-11T09:03:29.445Z,6828
2018-03-11T09:04:39.265Z,6856
2018-03-11T09:05:49.365Z,6800
2018-03-11T09:06:59.517Z,6804
2018-03-11T09:08:09.355Z,6672
2018-03-11T09:09:19.444Z,6776
2018-03-11T09:10:29.763Z,6716
2018-03-11T09:11:39.987Z,6696
2018-03-11T09:12:49.843Z,6764
2018-03-11T09:13:59.932Z,6764
2018-03-11T09:15:09.760Z,6820
2018-03-11T09:16:19.840Z,6848
2018-03-11T09:17:29.665Z,6816
2018-03-11T09:18:39.485Z,6660
2018-03-11T09:19:49.293Z,6472
2018-03-11T09:20:59.113Z,6360
2018-03-11T09:22:09.203Z,5888
2018-03-11T09:23:18.993Z,5036
2018-03-11T09:24:28.810Z,6484
2018-03-11T09:25:38.620Z,6068
2018-03-11T09:26:48.786Z,7008
2018-03-11T09:27:58.590Z,7280
2018-03-11T09:29:08.386Z,5092
2018-03-11T09:30:18.207Z,5900
2018-03-11T09:31:28.026Z,6424
2018-03-11T09:32:38.125Z,5152
2018-03-11T09:33:47.964Z,4792
2018-03-11T09:34:58.232Z,4704
2018-03-11T09:36:08.127Z,4024
2018-03-11T09:37:18.243Z,5584
2018-03-11T09:38:27.836Z,7356
2018-03-11T09:39:37.410Z,7368
2018-03-11T09:40:47.233Z,5328
2018-03-11T09:41:57.381Z,5108
2018-03-11T09:43:07.221Z,5768
2018-03-11T09:44:17.302Z,6528
2018-03-11T09:45:27.397Z,6720
2018-03-11T09:46:37.506Z,6300
2018-03-11T09:47:47.660Z,5592
2018-03-11T09:48:57.770Z,5116
2018-03-11T09:50:07.866Z,5316
2018-03-11T09:51:17.712Z,6072
2018-03-11T09:52:27.809Z,6188
2018-03-11T09:53:37.445Z,6696
2018-03-11T09:54:47.549Z,5908
2018-03-11T09:55:57.823Z,4960
2018-03-11T09:57:07.934Z,4864
2018-03-11T09:58:17.767Z,5460
2018-03-11T09:59:27.402Z,3704
2018-03-11T10:00:37.239Z,5100
2018-03-11T10:01:47.337Z,5168
2018-03-11T10:02:57.442Z,4284
2018-03-11T10:04:07.021Z,4640
2018-03-11T10:05:17.147Z,6624
2018-03-11T10:06:26.996Z,6156
2018-03-11T10:07:36.873Z,6328
2018-03-11T10:08:46.437Z,6692
2018-03-11T10:09:56.545Z,6208
2018-03-11T10:11:06.674Z,6536
2018-03-11T10:12:16.761Z,5260
2018-03-11T10:13:26.872Z,5548
2018-03-11T10:14:37.016Z,4624
2018-03-11T10:15:46.845Z,7300
2018-03-11T10:16:56.744Z,5596
2018-03-11T10:18:06.570Z,4920
2018-03-11T10:19:16.106Z,4628
2018-03-11T10:20:25.939Z,6088
2018-03-11T10:21:36.012Z,5144
2018-03-11T10:22:46.089Z,4992
2018-03-11T10:23:55.905Z,5860
2018-03-11T10:25:05.708Z,5732
2018-03-11T10:26:15.253Z,6232
2018-03-11T10:27:25.333Z,5152
2018-03-11T10:28:35.481Z,5816
2018-03-11T10:29:45.283Z,6448
2018-03-11T10:30:55.378Z,6180
2018-03-11T10:32:05.194Z,9000
2018-03-11T10:33:14.760Z,9164
2018-03-11T10:34:24.065Z,8052
2018-03-11T10:35:34.160Z,7856
2018-03-11T10:36:43.756Z,6796
2018-03-11T10:37:53.373Z,6904
2018-03-11T10:39:03.212Z,7240
2018-03-11T10:40:13.070Z,5964
2018-03-11T10:41:23.191Z,6616
2018-03-11T10:42:32.484Z,5428
2018-03-11T10:43:42.014Z,5212
2018-03-11T10:44:51.575Z,5400
2018-03-11T10:46:01.429Z,5464
2018-03-11T10:47:11.510Z,5580
2018-03-11T10:48:21.322Z,5912
2018-03-11T10:49:31.404Z,6396
2018-03-11T10:50:41.321Z,7104
2018-03-11T10:51:51.492Z,6048
2018-03-11T10:53:01.569Z,5896
2018-03-11T10:54:11.631Z,6236
2018-03-11T10:55:21.759Z,6832
2018-03-11T10:56:31.059Z,9136
2018-03-11T10:57:40.955Z,8888
2018-03-11T10:58:50.841Z,6868
2018-03-11T11:00:00.662Z,6928
2018-03-11T11:01:10.749Z,6284
2018-03-11T11:02:20.708Z,9932
2018-03-11T11:03:30.310Z,8464
2018-03-11T11:04:39.857Z,8392
2018-03-11T11:05:49.932Z,7224
2018-03-11T11:07:00.010Z,8152
2018-03-11T11:08:10.101Z,8932
2018-03-11T11:09:19.405Z,8916
2018-03-11T11:10:29.480Z,6924
2018-03-11T11:11:39.289Z,7424
2018-03-11T11:12:48.579Z,9144
2018-03-11T11:13:58.675Z,9588
2018-03-11T11:15:08.556Z,9484
2018-03-11T11:16:18.640Z,10452
2018-03-11T11:17:28.748Z,10328
2018-03-11T11:18:38.866Z,11228
2018-03-11T11:19:48.983Z,9884
2018-03-11T11:20:59.078Z,9352
2018-03-11T11:22:08.634Z,8428
2018-03-11T11:23:18.727Z,8748
2018-03-11T11:24:28.817Z,7228
2018-03-11T11:25:38.778Z,7212
2018-03-11T11:26:48.884Z,6192
2018-03-11T11:27:58.954Z,6472
2018-03-11T11:29:08.792Z,6236
2018-03-11T11:30:18.609Z,6260
2018-03-11T11:31:28.157Z,6352
2018-03-11T11:32:38.251Z,6604
2018-03-11T11:33:48.324Z,6300
2018-03-11T11:34:58.142Z,6156
2018-03-11T11:36:08.210Z,6352
2018-03-11T11:37:18.292Z,6444
2018-03-11T11:38:28.202Z,6692
2018-03-11T11:39:38.048Z,7100
2018-03-11T11:40:48.122Z,6624
2018-03-11T11:41:58.199Z,7116
2018-03-11T11:43:08.306Z,7776
2018-03-11T11:44:18.463Z,7500
2018-03-11T11:45:28.288Z,6416
2018-03-11T11:46:38.373Z,6080
2018-03-11T11:47:48.190Z,5916
2018-03-11T11:48:58.147Z,7524
2018-03-11T11:50:08.268Z,8052
2018-03-11T11:51:18.071Z,6904
2018-03-11T11:52:27.940Z,7392
2018-03-11T11:53:37.770Z,7316
2018-03-11T11:54:47.556Z,7444
2018-03-11T11:55:57.119Z,7196
2018-03-11T11:57:06.931Z,7304
2018-03-11T11:58:16.826Z,6576
2018-03-11T11:59:26.907Z,6648
2018-03-11T12:00:36.970Z,7032
2018-03-11T12:01:47.054Z,7776
2018-03-11T12:02:57.129Z,7652
2018-03-11T12:04:07.189Z,6552
2018-03-11T12:05:17.275Z,6356
2018-03-11T12:06:27.433Z,6168
2018-03-11T12:07:37.531Z,6060
2018-03-11T12:08:47.608Z,6132
2018-03-11T12:09:57.699Z,5992
2018-03-11T12:11:07.781Z,5924
2018-03-11T12:12:17.997Z,5900
2018-03-11T12:13:27.811Z,5892
2018-03-11T12:14:37.630Z,5908
2018-03-11T12:15:47.433Z,6044
2018-03-11T12:16:57.506Z,6072
2018-03-11T12:18:07.052Z,6208
2018-03-11T12:19:16.602Z,6540
2018-03-11T12:20:26.691Z,6172
2018-03-11T12:21:36.507Z,6312
2018-03-11T12:22:46.629Z,6116
2018-03-11T12:23:56.710Z,6300
2018-03-11T12:25:06.323Z,6172
2018-03-11T12:26:16.400Z,6404
2018-03-11T12:27:26.237Z,6196
2018-03-11T12:28:36.058Z,6176
2018-03-11T12:29:45.620Z,6340
2018-03-11T12:30:55.512Z,6640
2018-03-11T12:32:05.586Z,7184
2018-03-11T12:33:15.678Z,8212
2018-03-11T12:34:25.939Z,7672
2018-03-11T12:35:36.237Z,7136
2018-03-11T12:36:46.374Z,6492
2018-03-11T12:37:56.475Z,6708
2018-03-11T12:39:06.088Z,6244
2018-03-11T12:40:16.186Z,5976
2018-03-11T12:41:26.058Z,5852
2018-03-11T12:42:36.152Z,5856
2018-03-11T12:43:46.252Z,5940
2018-03-11T12:44:56.355Z,7304
2018-03-11T12:46:06.496Z,9656
2018-03-11T12:47:16.705Z,9060
2018-03-11T12:48:26.782Z,8260
2018-03-11T12:49:36.865Z,8924
2018-03-11T12:50:46.942Z,7552
2018-03-11T12:51:56.499Z,6704
2018-03-11T12:53:06.602Z,6788
2018-03-11T12:54:16.676Z,6512
2018-03-11T12:55:26.496Z,6300
2018-03-11T12:56:36.304Z,6724
2018-03-11T12:57:46.376Z,6648
2018-03-11T12:58:56.475Z,5968
2018-03-11T13:00:06.280Z,5476
2018-03-11T13:01:16.409Z,5560
2018-03-11T13:02:26.235Z,5728
2018-03-11T13:03:36.101Z,5656
2018-03-11T13:04:45.685Z,5644
2018-03-11T13:05:55.502Z,5660
2018-03-11T13:07:05.618Z,5216
2018-03-11T13:08:15.693Z,5052
2018-03-11T13:09:25.852Z,4928
2018-03-11T13:10:35.427Z,4796
2018-03-11T13:11:45.552Z,4672
2018-03-11T13:12:55.409Z,4552
2018-03-11T13:14:05.222Z,4452
2018-03-11T13:15:15.389Z,4364
2018-03-11T13:16:24.973Z,4256
2018-03-11T13:17:34.551Z,4320
2018-03-11T13:18:44.626Z,4432
2018-03-11T13:19:54.182Z,4340
2018-03-11T13:21:03.494Z,4008
2018-03-11T13:22:13.306Z,4004
2018-03-11T13:23:23.163Z,4068
2018-03-11T13:24:33.254Z,4160
2018-03-11T13:25:43.477Z,4244
2018-03-11T13:26:53.718Z,4304
2018-03-11T13:28:03.812Z,4616
2018-03-11T13:29:13.891Z,4628
2018-03-11T13:30:23.988Z,4292
2018-03-11T13:31:33.787Z,4424
2018-03-11T13:32:43.624Z,5108
2018-03-11T13:33:53.467Z,4740
2018-03-11T13:35:03.582Z,4764
2018-03-11T13:36:13.142Z,4600
2018-03-11T13:37:23.378Z,5464
2018-03-11T13:38:33.282Z,5932
2018-03-11T13:39:43.379Z,5072
2018-03-11T13:40:53.468Z,4516
2018-03-11T13:42:03.543Z,4600
2018-03-11T13:43:13.242Z,4988
2018-03-11T13:44:23.314Z,4844
2018-03-11T13:45:32.925Z,5028
2018-03-11T13:46:43.029Z,4564
2018-03-11T13:47:53.166Z,4392
2018-03-11T13:49:03.239Z,4384
2018-03-11T13:50:13.345Z,4392
2018-03-11T13:51:23.415Z,4548
2018-03-11T13:52:33.536Z,4880
2018-03-11T13:53:43.700Z,5144
2018-03-11T13:54:53.269Z,5760
2018-03-11T13:56:03.433Z,6944
2018-03-11T13:57:13.524Z,7408
2018-03-11T13:58:23.142Z,6832
2018-03-11T13:59:33.266Z,6704
2018-03-11T14:00:43.179Z,5872
2018-03-11T14:01:53.303Z,8212
2018-03-11T14:03:03.112Z,8728
2018-03-11T14:04:13.255Z,8744
2018-03-11T14:05:23.085Z,8788
2018-03-11T14:06:32.408Z,8568
2018-03-11T14:07:42.518Z,8208
2018-03-11T14:08:52.334Z,7140
2018-03-11T14:10:02.498Z,8044
2018-03-11T14:11:12.583Z,7772
2018-03-11T14:12:22.493Z,8004
2018-03-11T14:13:32.337Z,7960
2018-03-11T14:14:42.182Z,8064
2018-03-11T14:15:52.292Z,7492
2018-03-11T14:17:02.373Z,6952
2018-03-11T14:18:11.918Z,5696
2018-03-11T14:19:21.741Z,6008
2018-03-11T14:20:31.576Z,6004
2018-03-11T14:21:41.416Z,5616
2018-03-11T14:22:51.236Z,5168
2018-03-11T14:24:01.061Z,5604
2018-03-11T14:25:11.214Z,6132
2018-03-11T14:26:21.301Z,5904
2018-03-11T14:27:31.415Z,6216
2018-03-11T14:28:41.228Z,5660
2018-03-11T14:29:51.317Z,5076
2018-03-11T14:31:01.406Z,4660
2018-03-11T14:32:11.241Z,4752
2018-03-11T14:33:21.360Z,5616
2018-03-11T14:34:31.182Z,4976
2018-03-11T14:35:41.272Z,4580
2018-03-11T14:36:51.385Z,4008
2018-03-11T14:38:01.476Z,3888
2018-03-11T14:39:11.623Z,3508
2018-03-11T14:40:21.423Z,3316
2018-03-11T14:41:31.558Z,3128
2018-03-11T14:42:41.395Z,2992
2018-03-11T14:43:51.480Z,2900
2018-03-11T14:45:01.594Z,2820
2018-03-11T14:46:11.704Z,2736
2018-03-11T14:47:21.515Z,2676
2018-03-11T14:48:31.583Z,2616
2018-03-11T14:49:41.659Z,2564
2018-03-11T14:50:51.516Z,2576
2018-03-11T14:52:01.586Z,2492
2018-03-11T14:53:11.669Z,2380
2018-03-11T14:54:21.775Z,2348
2018-03-11T14:55:31.856Z,2328
2018-03-11T14:56:41.668Z,2324
2018-03-11T14:57:51.492Z,2328
2018-03-11T14:59:01.612Z,2348
2018-03-11T15:00:11.697Z,2376
2018-03-11T15:01:21.793Z,2400
2018-03-11T15:02:31.620Z,2424
2018-03-11T15:03:41.492Z,2448
2018-03-11T15:04:51.314Z,2468
2018-03-11T15:06:00.869Z,2512
2018-03-11T15:07:10.682Z,2664
2018-03-11T15:08:20.788Z,2820
2018-03-11T15:09:30.879Z,2992
2018-03-11T15:10:40.972Z,3340
2018-03-11T15:11:50.797Z,3068
2018-03-11T15:13:00.370Z,2708
2018-03-11T15:14:10.241Z,2592
2018-03-11T15:15:20.088Z,2540
2018-03-11T15:16:30.331Z,2508
2018-03-11T15:17:40.498Z,2476
2018-03-11T15:18:50.352Z,2448
2018-03-11T15:20:00.444Z,2432
2018-03-11T15:21:10.560Z,2432
2018-03-11T15:22:20.665Z,2416
2018-03-11T15:23:30.476Z,2384
2018-03-11T15:24:40.290Z,2364
2018-03-11T15:25:50.166Z,2344
2018-03-11T15:26:59.733Z,2320
2018-03-11T15:28:09.723Z,2296
2018-03-11T15:29:19.554Z,2288
2018-03-11T15:30:29.647Z,2340
2018-03-11T15:31:39.498Z,2300
2018-03-11T15:32:49.577Z,2200
2018-03-11T15:33:59.677Z,2216
2018-03-11T15:35:09.760Z,2172
2018-03-11T15:36:19.865Z,2136
2018-03-11T15:37:29.946Z,2088
2018-03-11T15:38:39.784Z,2076
2018-03-11T15:39:49.616Z,2076
2018-03-11T15:40:59.718Z,1980
2018-03-11T15:42:09.844Z,1904
2018-03-11T15:43:19.637Z,1976
2018-03-11T15:44:29.474Z,2064
2018-03-11T15:45:39.581Z,1984
2018-03-11T15:46:49.702Z,1836
2018-03-11T15:47:59.535Z,1752
2018-03-11T15:49:09.350Z,1688
2018-03-11T15:50:18.646Z,1656
2018-03-11T15:51:28.521Z,1612
2018-03-11T15:52:38.421Z,1524
2018-03-11T15:53:48.500Z,1444
2018-03-11T15:54:58.341Z,1384
2018-03-11T15:56:08.431Z,1332
2018-03-11T15:57:18.512Z,1276
2018-03-11T15:58:28.624Z,1228
2018-03-11T15:59:38.718Z,1180
2018-03-11T16:00:48.598Z,1136
2018-03-11T16:01:58.464Z,1084
2018-03-11T16:03:08.526Z,1048
2018-03-11T16:04:18.135Z,1012
2018-03-11T16:05:27.939Z,980
2018-03-11T16:06:38.072Z,952
2018-03-11T16:07:48.156Z,920
2018-03-11T16:08:58.262Z,904
2018-03-11T16:10:08.419Z,884
2018-03-11T16:11:18.296Z,864
2018-03-11T16:12:28.433Z,848
2018-03-11T16:13:38.517Z,832
2018-03-11T16:14:48.635Z,812
2018-03-11T16:15:58.744Z,788
2018-03-11T16:17:08.587Z,760
2018-03-11T16:18:18.484Z,732
2018-03-11T16:19:28.329Z,696
2018-03-11T16:20:38.206Z,660
2018-03-11T16:21:48.305Z,628
2018-03-11T16:22:58.137Z,600
2018-03-11T16:24:07.974Z,568
2018-03-11T16:25:18.072Z,536
2018-03-11T16:26:28.180Z,508
2018-03-11T16:27:38.291Z,476
2018-03-11T16:28:48.117Z,452
2018-03-11T16:29:58.298Z,428
2018-03-11T16:31:08.403Z,404